Time;durP1;ratioP1;P1;durP2;ratioP2;P2;SDS_P1;SDS_P2;PMS_P1;PMS_P2;Temp;Humidity;BMP_temperature;BMP_pressure;BME280_temperature;BME280_humidity;BME280_pressure;Samples;Min_cycle;Max_cycle;Signal;HPM_P1;HPM_P2
2022/12/02 00:01:43;;;;;;;246.35;54.17;;;;;;;4.54;100.00;102273.78;5015348;28;20029;-79
2022/12/02 00:04:28;;;;;;;225.32;53.05;;;;;;;4.54;100.00;102278.31;4995149;28;20572;-78
2022/12/02 00:06:56;;;;;;;230.77;53.70;;;;;;;4.51;100.00;102276.59;5014574;28;20037;-78
2022/12/02 00:09:32;;;;;;;228.10;53.47;;;;;;;4.53;100.00;102274.72;4997654;28;20095;-78
2022/12/02 00:11:59;;;;;;;217.52;51.67;;;;;;;4.56;100.00;102271.03;5013685;28;20033;-78
2022/12/02 00:14:29;;;;;;;199.80;48.85;;;;;;;4.41;100.00;102261.53;4996911;28;20030;-78
2022/12/02 00:16:56;;;;;;;214.75;49.60;;;;;;;4.43;100.00;102267.81;4987996;28;20543;-78
2022/12/02 00:19:22;;;;;;;214.98;50.00;;;;;;;4.36;100.00;102266.19;5024930;28;20060;-78
2022/12/02 00:21:49;;;;;;;209.05;50.50;;;;;;;4.37;100.00;102265.28;4991385;28;20429;-78
2022/12/02 00:24:15;;;;;;;208.27;49.83;;;;;;;4.41;100.00;102259.72;4995877;28;20030;-78
2022/12/02 00:26:41;;;;;;;193.32;48.55;;;;;;;4.35;100.00;102261.72;5008930;28;20044;-78
2022/12/02 00:29:07;;;;;;;201.60;45.67;;;;;;;4.32;100.00;102262.69;5010388;28;20038;-79
2022/12/02 00:31:33;;;;;;;198.43;48.13;;;;;;;4.30;100.00;102261.00;4990454;28;20044;-78
2022/12/02 00:33:59;;;;;;;206.27;49.08;;;;;;;4.34;100.00;102257.22;5003274;28;20064;-78
2022/12/02 00:36:28;;;;;;;195.18;45.47;;;;;;;4.26;100.00;102251.16;4994382;28;20582;-78
2022/12/02 00:38:54;;;;;;;208.18;46.40;;;;;;;4.25;100.00;102253.00;5019277;28;20037;-78
2022/12/02 00:41:20;;;;;;;191.00;45.50;;;;;;;4.27;100.00;102248.41;5038923;28;20033;-78
2022/12/02 00:46:49;;;;;;;184.32;43.33;;;;;;;4.21;100.00;102238.66;4940616;29;20047;-78
2022/12/02 00:49:15;;;;;;;187.93;45.17;;;;;;;4.19;100.00;102243.19;4946134;29;20450;-78
2022/12/02 00:51:43;;;;;;;198.75;47.10;;;;;;;4.25;100.00;102255.69;4980405;28;20041;-78
2022/12/02 00:54:09;;;;;;;192.93;43.03;;;;;;;4.16;100.00;102254.13;5005352;28;20029;-78
2022/12/02 00:56:35;;;;;;;200.00;46.95;;;;;;;4.08;100.00;102245.34;5006421;28;20037;-78
2022/12/02 00:59:01;;;;;;;188.55;43.33;;;;;;;4.17;100.00;102250.50;4988558;28;20057;-78
2022/12/02 01:01:28;;;;;;;196.20;44.70;;;;;;;4.17;100.00;102249.63;5028997;28;20030;-78
2022/12/02 01:03:54;;;;;;;196.75;43.88;;;;;;;4.23;100.00;102246.69;5004793;28;20050;-78
2022/12/02 01:06:20;;;;;;;179.80;44.10;;;;;;;4.19;100.00;102242.31;5022198;28;20106;-78
2022/12/02 01:08:45;;;;;;;195.15;43.72;;;;;;;4.14;100.00;102245.16;5015992;28;20397;-78
2022/12/02 01:11:12;;;;;;;175.60;43.38;;;;;;;4.10;100.00;102246.22;4996184;28;20092;-78
2022/12/02 01:13:37;;;;;;;169.73;42.67;;;;;;;4.16;100.00;102245.13;5031844;28;20041;-78
2022/12/02 01:16:03;;;;;;;169.68;43.00;;;;;;;4.05;100.00;102226.47;5038156;28;20358;-78
2022/12/02 01:18:29;;;;;;;174.98;42.25;;;;;;;4.09;100.00;102239.00;5000358;28;20038;-78
2022/12/02 01:20:55;;;;;;;161.60;40.20;;;;;;;4.07;100.00;102227.31;4999732;28;20512;-78
2022/12/02 01:23:21;;;;;;;173.15;42.55;;;;;;;4.03;100.00;102237.38;5006123;28;20064;-78
2022/12/02 01:25:47;;;;;;;174.05;41.63;;;;;;;4.07;100.00;102232.75;5009511;28;20069;-78
2022/12/02 01:28:14;;;;;;;176.38;42.60;;;;;;;4.08;100.00;102234.50;5003065;28;20038;-77
2022/12/02 01:30:39;;;;;;;171.48;43.53;;;;;;;4.03;100.00;102229.25;5011441;28;20119;-78
2022/12/02 01:33:04;;;;;;;178.13;45.40;;;;;;;4.02;100.00;102221.16;4986291;28;20058;-78
2022/12/02 01:35:30;;;;;;;175.35;43.20;;;;;;;3.99;100.00;102219.41;4998657;28;20041;-78
2022/12/02 01:37:55;;;;;;;177.95;45.28;;;;;;;4.02;100.00;102223.88;5018999;28;20057;-78
2022/12/02 01:40:21;;;;;;;166.98;41.53;;;;;;;3.98;100.00;102225.75;5004096;28;20494;-78
2022/12/02 01:42:47;;;;;;;173.95;42.47;;;;;;;4.02;100.00;102229.28;4987464;28;20125;-78
2022/12/02 01:45:14;;;;;;;161.93;43.17;;;;;;;4.00;100.00;102226.63;4987195;28;20125;-78
2022/12/02 01:47:40;;;;;;;152.02;39.95;;;;;;;4.03;100.00;102225.63;5033309;28;20048;-78
2022/12/02 01:50:09;;;;;;;157.55;40.08;;;;;;;3.95;100.00;102233.09;5004042;28;20351;-78
2022/12/02 01:52:35;;;;;;;155.00;38.42;;;;;;;3.88;100.00;102226.97;5004436;28;20080;-78
2022/12/02 01:55:00;;;;;;;159.60;39.20;;;;;;;3.81;100.00;102225.38;5015303;28;20059;-78
2022/12/02 01:57:28;;;;;;;140.55;37.20;;;;;;;3.80;100.00;102231.72;5001449;28;20120;-78
2022/12/02 01:59:54;;;;;;;142.57;38.40;;;;;;;3.77;100.00;102224.56;5006531;28;20048;-78
2022/12/02 02:02:25;;;;;;;148.73;37.72;;;;;;;3.74;100.00;102235.50;5041942;28;20030;-78
2022/12/02 02:04:53;;;;;;;158.68;40.33;;;;;;;3.79;100.00;102235.38;5000056;28;20144;-77
2022/12/02 02:07:19;;;;;;;166.25;41.30;;;;;;;3.76;100.00;102222.78;5004295;28;20037;-78
2022/12/02 02:09:44;;;;;;;159.90;39.15;;;;;;;3.70;100.00;102241.03;4988857;28;20090;-78
2022/12/02 02:12:10;;;;;;;151.57;38.45;;;;;;;3.75;100.00;102237.25;5020850;28;20045;-78
2022/12/02 02:14:35;;;;;;;148.25;37.72;;;;;;;3.68;100.00;102243.78;4981908;28;20478;-78
2022/12/02 02:17:00;;;;;;;150.38;40.75;;;;;;;3.71;100.00;102230.16;5012234;28;20038;-78
2022/12/02 02:19:26;;;;;;;144.98;38.38;;;;;;;3.70;100.00;102228.38;5018069;28;20038;-78
2022/12/02 02:21:54;;;;;;;147.70;37.20;;;;;;;3.62;100.00;102225.00;5002334;28;20042;-78
2022/12/02 02:24:19;;;;;;;150.80;38.88;;;;;;;3.60;100.00;102224.16;5039888;28;20459;-78
2022/12/02 02:26:45;;;;;;;150.32;40.45;;;;;;;3.67;100.00;102223.94;4997300;28;20076;-78
2022/12/02 02:29:15;;;;;;;146.27;39.13;;;;;;;3.63;100.00;102216.81;5022234;28;20072;-80
2022/12/02 02:31:41;;;;;;;148.43;39.55;;;;;;;3.58;100.00;102223.31;4975833;28;20030;-77
2022/12/02 02:34:07;;;;;;;147.70;39.42;;;;;;;3.62;100.00;102217.78;5002702;28;20105;-78
2022/12/02 02:36:33;;;;;;;161.55;38.63;;;;;;;3.53;100.00;102219.84;5004753;28;20591;-78
2022/12/02 02:38:58;;;;;;;155.13;36.80;;;;;;;3.52;100.00;102218.06;5017286;28;20082;-79
2022/12/02 02:41:25;;;;;;;140.57;36.92;;;;;;;3.54;100.00;102214.38;4999734;28;20476;-78
2022/12/02 02:43:53;;;;;;;144.65;39.38;;;;;;;3.47;100.00;102205.53;5014187;28;20021;-78
2022/12/02 02:46:19;;;;;;;150.85;40.22;;;;;;;3.52;100.00;102208.09;4992453;28;20044;-78
2022/12/02 02:48:46;;;;;;;150.15;38.55;;;;;;;3.53;100.00;102212.59;5034026;28;20116;-78
2022/12/02 02:51:13;;;;;;;157.95;37.17;;;;;;;3.55;100.00;102199.03;4978401;28;20033;-77
2022/12/02 02:53:39;;;;;;;151.50;36.78;;;;;;;3.58;100.00;102207.06;5001493;28;20026;-78
2022/12/02 02:56:05;;;;;;;147.75;37.65;;;;;;;3.54;100.00;102206.25;5003856;28;20124;-78
2022/12/02 02:58:33;;;;;;;160.00;38.05;;;;;;;3.58;100.00;102196.25;5001924;28;20030;-77
2022/12/02 03:01:02;;;;;;;152.85;37.80;;;;;;;3.53;100.00;102192.78;5031505;28;20120;-78
2022/12/02 03:03:32;;;;;;;130.90;36.13;;;;;;;3.61;100.00;102198.88;5000074;28;20076;-77
2022/12/02 03:05:59;;;;;;;140.30;37.65;;;;;;;3.59;100.00;102195.28;5002545;28;20104;-77
2022/12/02 03:08:26;;;;;;;154.60;38.58;;;;;;;3.61;100.00;102197.03;4986686;28;20034;-77
2022/12/02 03:10:56;;;;;;;136.82;35.42;;;;;;;3.64;100.00;102196.03;5015991;28;20037;-78
2022/12/02 03:13:22;;;;;;;146.40;39.15;;;;;;;3.53;100.00;102182.81;4991365;28;20026;-77
2022/12/02 03:15:48;;;;;;;143.50;36.45;;;;;;;3.62;100.00;102181.66;5002143;28;20060;-77
2022/12/02 03:18:14;;;;;;;140.80;35.13;;;;;;;3.63;100.00;102188.88;4998489;28;20033;-78
2022/12/02 03:20:40;;;;;;;147.30;37.13;;;;;;;3.55;100.00;102193.63;4989831;28;20042;-78
2022/12/02 03:23:05;;;;;;;150.65;38.75;;;;;;;3.44;100.00;102183.97;4997378;28;20029;-78
2022/12/02 03:25:31;;;;;;;153.05;38.65;;;;;;;3.52;100.00;102177.44;5005466;28;20068;-78
2022/12/02 03:27:57;;;;;;;149.35;37.80;;;;;;;3.48;100.00;102180.25;5008356;28;20089;-77
2022/12/02 03:30:22;;;;;;;144.10;36.22;;;;;;;3.44;100.00;102177.66;4971782;28;20038;-77
2022/12/02 03:32:48;;;;;;;157.73;37.38;;;;;;;3.50;100.00;102166.66;4990958;28;20065;-78
2022/12/02 03:35:14;;;;;;;150.05;36.63;;;;;;;3.57;100.00;102173.66;5014820;28;20037;-77
2022/12/02 03:37:39;;;;;;;142.18;37.95;;;;;;;3.55;100.00;102178.25;5005344;28;20134;-77
2022/12/02 03:40:06;;;;;;;147.05;37.65;;;;;;;3.50;100.00;102172.94;4989571;28;20046;-78
2022/12/02 03:42:32;;;;;;;152.70;38.05;;;;;;;3.48;100.00;102172.13;5003267;28;20035;-77
2022/12/02 03:44:57;;;;;;;154.38;36.17;;;;;;;3.53;100.00;102173.81;5015488;28;20038;-78
2022/12/02 03:47:23;;;;;;;150.40;39.60;;;;;;;3.47;100.00;102172.16;5022760;28;20038;-78
2022/12/02 03:49:49;;;;;;;159.13;39.30;;;;;;;3.53;100.00;102165.69;5002458;28;20080;-78
2022/12/02 03:52:15;;;;;;;146.70;37.47;;;;;;;3.42;100.00;102164.16;4956275;28;20042;-78
2022/12/02 03:54:41;;;;;;;144.00;36.88;;;;;;;3.43;100.00;102157.81;5007079;28;20025;-78
2022/12/02 03:57:09;;;;;;;149.02;37.95;;;;;;;3.50;100.00;102156.69;5000366;28;20046;-77
2022/12/02 03:59:35;;;;;;;150.82;38.53;;;;;;;3.47;100.00;102156.78;5021424;28;20049;-77
2022/12/02 04:02:00;;;;;;;152.98;38.88;;;;;;;3.41;100.00;102147.97;4999689;28;20046;-77
2022/12/02 04:04:25;;;;;;;162.70;39.35;;;;;;;3.38;100.00;102150.75;4994445;28;20030;-78
2022/12/02 04:06:51;;;;;;;135.30;38.03;;;;;;;3.41;100.00;102138.03;5021253;28;20053;-77
2022/12/02 04:09:16;;;;;;;152.68;37.67;;;;;;;3.39;100.00;102141.72;4976303;28;20087;-77
2022/12/02 04:11:42;;;;;;;155.10;38.35;;;;;;;3.46;100.00;102135.16;5002531;28;20038;-78
2022/12/02 04:14:08;;;;;;;157.63;38.67;;;;;;;3.47;100.00;102129.72;5001671;28;20057;-77
2022/12/02 04:16:33;;;;;;;158.68;37.65;;;;;;;3.42;100.00;102126.25;4978810;28;20041;-77
2022/12/02 04:18:59;;;;;;;155.27;37.88;;;;;;;3.45;100.00;102131.59;4998388;28;20037;-77
2022/12/02 04:21:24;;;;;;;153.02;37.25;;;;;;;3.42;100.00;102118.13;5000738;28;20116;-77
2022/12/02 04:23:53;;;;;;;161.25;40.22;;;;;;;3.42;100.00;102131.66;5021678;28;20041;-77
2022/12/02 04:26:19;;;;;;;162.10;38.03;;;;;;;3.45;100.00;102128.88;5022382;28;20053;-77
2022/12/02 04:28:45;;;;;;;149.73;35.97;;;;;;;3.51;100.00;102135.97;5011931;28;20056;-77
2022/12/02 04:31:10;;;;;;;156.20;36.50;;;;;;;3.53;100.00;102139.50;5017806;28;20037;-77
2022/12/02 04:33:36;;;;;;;155.80;36.67;;;;;;;3.51;100.00;102130.53;5007017;28;20021;-77
2022/12/02 04:36:02;;;;;;;157.75;39.72;;;;;;;3.48;100.00;102131.50;5024465;28;20033;-77
2022/12/02 04:38:27;;;;;;;150.68;38.47;;;;;;;3.45;100.00;102130.72;4988237;28;20080;-79
2022/12/02 04:40:54;;;;;;;157.35;37.35;;;;;;;3.47;100.00;102134.25;5007900;28;20033;-78
2022/12/02 04:43:21;;;;;;;145.55;35.58;;;;;;;3.52;100.00;102126.88;5020659;28;20040;-80
2022/12/02 04:45:46;;;;;;;146.48;34.00;;;;;;;3.45;100.00;102128.88;5022190;28;20029;-78
2022/12/02 04:48:12;;;;;;;141.27;36.30;;;;;;;3.40;100.00;102120.00;5005606;28;20092;-78
2022/12/02 04:50:38;;;;;;;138.50;35.20;;;;;;;3.40;100.00;102129.97;5021318;28;20049;-79
2022/12/02 04:53:03;;;;;;;149.73;36.10;;;;;;;3.41;100.00;102127.22;5007659;28;20030;-78
2022/12/02 04:55:29;;;;;;;135.98;34.65;;;;;;;3.47;100.00;102128.84;4992963;28;20044;-78
2022/12/02 04:57:54;;;;;;;145.50;38.50;;;;;;;3.40;100.00;102121.84;5041286;28;20451;-78
2022/12/02 05:00:22;;;;;;;135.50;34.40;;;;;;;3.29;100.00;102112.19;5003617;28;20049;-78
2022/12/02 05:02:47;;;;;;;131.45;33.55;;;;;;;3.46;100.00;102116.22;5029715;28;20499;-77
2022/12/02 05:05:13;;;;;;;126.28;33.38;;;;;;;3.40;100.00;102100.19;5024855;28;20069;-78
2022/12/02 05:07:39;;;;;;;129.60;32.88;;;;;;;3.42;100.00;102103.72;4988815;28;20037;-78
2022/12/02 05:10:05;;;;;;;127.10;33.50;;;;;;;3.38;100.00;102102.94;4995667;28;20045;-78
2022/12/02 05:12:31;;;;;;;129.32;33.70;;;;;;;3.45;100.00;102109.94;5033134;28;20060;-77
2022/12/02 05:14:57;;;;;;;136.45;33.95;;;;;;;3.37;100.00;102103.84;5021785;28;20029;-78
2022/12/02 05:17:23;;;;;;;143.60;36.53;;;;;;;3.39;100.00;102101.09;5007988;28;20038;-77
2022/12/02 05:19:48;;;;;;;130.88;32.47;;;;;;;3.34;100.00;102108.47;5000145;28;20084;-77
2022/12/02 05:22:14;;;;;;;129.43;33.55;;;;;;;3.37;100.00;102106.56;4998017;28;20034;-78
2022/12/02 05:24:40;;;;;;;120.20;31.77;;;;;;;3.45;100.00;102109.06;5003617;28;20052;-78
2022/12/02 05:27:05;;;;;;;126.53;32.22;;;;;;;3.39;100.00;102106.50;5012011;28;20038;-77
2022/12/02 05:29:31;;;;;;;115.35;31.08;;;;;;;3.30;100.00;102111.25;4989977;28;20026;-78
2022/12/02 05:31:56;;;;;;;119.63;31.10;;;;;;;3.26;100.00;102104.19;5000480;28;20136;-77
2022/12/02 05:34:22;;;;;;;121.50;33.22;;;;;;;3.31;100.00;102109.44;5003556;28;20072;-78
2022/12/02 05:36:47;;;;;;;127.15;33.50;;;;;;;3.24;100.00;102095.19;4988291;28;20100;-78
2022/12/02 05:39:13;;;;;;;135.18;34.70;;;;;;;3.27;100.00;102095.09;4969687;28;20041;-78
2022/12/02 05:41:38;;;;;;;110.70;31.40;;;;;;;3.31;100.00;102085.06;4973698;28;20037;-78
2022/12/02 05:44:19;;;;;;;119.78;30.38;;;;;;;3.41;100.00;102089.31;4968471;28;20053;-78
2022/12/02 05:46:45;;;;;;;121.57;33.75;;;;;;;3.25;100.00;102094.28;5001446;28;20490;-78
2022/12/02 05:49:22;;;;;;;129.32;32.17;;;;;;;3.30;100.00;102091.44;4988320;28;20026;-78
2022/12/02 05:51:54;;;;;;;118.25;32.78;;;;;;;3.33;100.00;102085.03;5011103;28;20165;-78
2022/12/02 05:54:20;;;;;;;124.55;31.65;;;;;;;3.40;100.00;102090.22;5016319;28;20030;-78
2022/12/02 05:56:46;;;;;;;107.03;28.60;;;;;;;3.37;100.00;102092.16;5014982;28;20049;-78
2022/12/02 05:59:20;;;;;;;122.28;31.70;;;;;;;3.29;100.00;102092.34;4996895;28;20552;-77
2022/12/02 06:01:56;;;;;;;139.52;33.75;;;;;;;3.34;100.00;102106.63;4982730;28;20149;-77
2022/12/02 06:04:31;;;;;;;111.40;29.23;;;;;;;3.17;100.00;102093.59;5005109;28;20108;-77
2022/12/02 06:07:00;;;;;;;126.85;32.83;;;;;;;3.22;100.00;102101.59;4995964;28;20041;-78
2022/12/02 06:09:32;;;;;;;118.63;29.77;;;;;;;3.17;100.00;102092.72;4998217;28;20036;-77
2022/12/02 06:11:59;;;;;;;113.80;27.33;;;;;;;3.11;100.00;102088.34;4994131;28;20153;-79
2022/12/02 06:14:31;;;;;;;123.00;30.10;;;;;;;3.21;100.00;102106.09;4990858;28;20027;-77
2022/12/02 06:17:01;;;;;;;105.57;28.55;;;;;;;3.18;100.00;102083.66;4994440;28;20046;-77
2022/12/02 06:19:39;;;;;;;116.95;28.48;;;;;;;3.23;100.00;102090.72;4989826;28;20030;-77
2022/12/02 06:22:16;;;;;;;108.50;29.48;;;;;;;3.25;100.00;102096.09;5006757;28;20034;-78
2022/12/02 06:24:41;;;;;;;111.43;28.88;;;;;;;3.28;100.00;102093.28;4999934;28;20049;-78
2022/12/02 06:27:12;;;;;;;111.28;28.63;;;;;;;3.28;100.00;102085.16;5003445;28;20033;-78
2022/12/02 06:29:44;;;;;;;105.47;30.38;;;;;;;3.38;100.00;102093.91;5010661;28;20037;-78
2022/12/02 06:32:14;;;;;;;109.05;26.83;;;;;;;3.32;100.00;102086.84;4987083;28;20038;-77
2022/12/02 06:34:42;;;;;;;117.72;30.23;;;;;;;3.22;100.00;102093.47;5003328;28;20034;-78
2022/12/02 06:37:28;;;;;;;116.15;29.63;;;;;;;3.27;100.00;102094.22;4983371;28;20054;-78
2022/12/02 06:39:57;;;;;;;108.97;29.38;;;;;;;3.28;100.00;102087.88;4985796;28;20038;-78
2022/12/02 06:42:34;;;;;;;116.55;30.48;;;;;;;3.19;100.00;102089.03;4988053;28;20402;-78
2022/12/02 06:45:38;;;;;;;108.57;30.15;;;;;;;3.25;100.00;102090.69;5010158;28;20081;-78
2022/12/02 06:48:24;;;;;;;102.97;28.48;;;;;;;3.21;100.00;102088.97;4986615;28;20049;-78
2022/12/02 06:50:50;;;;;;;114.40;30.58;;;;;;;3.22;100.00;102086.22;5002285;28;20038;-78
2022/12/02 06:53:15;;;;;;;105.35;28.17;;;;;;;3.22;100.00;102086.22;5001047;28;20034;-78
2022/12/02 06:55:42;;;;;;;113.40;30.17;;;;;;;3.19;100.00;102083.59;5007023;28;20034;-78
2022/12/02 06:58:19;;;;;;;106.78;28.40;;;;;;;3.23;100.00;102087.09;4987705;28;20034;-78
2022/12/02 07:00:45;;;;;;;109.22;29.88;;;;;;;3.32;100.00;102094.97;4989937;28;20034;-78
2022/12/02 07:03:30;;;;;;;105.22;29.02;;;;;;;3.36;100.00;102088.56;5011362;28;20061;-78
2022/12/02 07:06:18;;;;;;;99.45;27.30;;;;;;;3.27;100.00;102086.09;5017813;28;20049;-77
2022/12/02 07:08:43;;;;;;;111.72;29.70;;;;;;;3.24;100.00;102087.06;4990455;28;20121;-78
2022/12/02 07:11:20;;;;;;;105.28;27.05;;;;;;;3.29;100.00;102092.34;5007108;28;20621;-78
2022/12/02 07:13:49;;;;;;;112.78;30.23;;;;;;;3.29;100.00;102090.53;5013086;28;20030;-78
2022/12/02 07:16:32;;;;;;;112.75;29.13;;;;;;;3.19;100.00;102091.72;5007836;28;20046;-77
2022/12/02 07:18:58;;;;;;;113.18;29.60;;;;;;;3.22;100.00;102096.19;5000090;28;20041;-77
2022/12/02 07:21:24;;;;;;;101.03;28.38;;;;;;;3.40;100.00;102087.53;5009191;28;20036;-77
2022/12/02 07:23:49;;;;;;;98.63;27.80;;;;;;;3.35;100.00;102088.59;5003151;28;20042;-78
2022/12/02 07:26:15;;;;;;;100.78;27.65;;;;;;;3.39;100.00;102096.56;4997279;28;20054;-79
2022/12/02 07:28:42;;;;;;;114.57;27.92;;;;;;;3.29;100.00;102092.34;5003475;28;20034;-80
2022/12/02 07:31:18;;;;;;;105.60;27.25;;;;;;;3.29;100.00;102095.94;5005330;28;20441;-78
2022/12/02 07:33:44;;;;;;;92.15;26.80;;;;;;;3.37;100.00;102093.03;4987925;28;20117;-78
2022/12/02 07:36:10;;;;;;;98.22;27.92;;;;;;;3.44;100.00;102091.03;5005696;28;20133;-78
2022/12/02 07:38:36;;;;;;;107.05;29.48;;;;;;;3.39;100.00;102103.81;5018478;28;20494;-78
2022/12/02 07:41:02;;;;;;;98.90;26.23;;;;;;;3.32;100.00;102094.97;4965420;28;20164;-76
2022/12/02 07:43:28;;;;;;;105.00;27.58;;;;;;;3.34;100.00;102095.81;5016956;28;20403;-78
2022/12/02 07:45:54;;;;;;;89.88;25.10;;;;;;;3.29;100.00;102098.66;5011690;28;20037;-77
2022/12/02 07:48:19;;;;;;;90.38;26.92;;;;;;;3.34;100.00;102103.94;4996064;28;20031;-78
2022/12/02 07:50:44;;;;;;;106.78;29.13;;;;;;;3.34;100.00;102097.66;4963201;28;20034;-77
2022/12/02 07:53:10;;;;;;;96.57;26.17;;;;;;;3.41;100.00;102102.84;4964446;28;20030;-77
2022/12/02 07:55:35;;;;;;;101.72;25.15;;;;;;;3.26;100.00;102097.84;5008084;28;20046;-77
2022/12/02 07:58:01;;;;;;;89.70;25.45;;;;;;;3.27;100.00;102091.53;4987410;28;20033;-77
2022/12/02 08:00:27;;;;;;;104.18;27.05;;;;;;;3.26;100.00;102093.34;4999673;28;20117;-77
2022/12/02 08:02:54;;;;;;;101.25;25.20;;;;;;;3.26;100.00;102097.84;4984661;28;20049;-77
2022/12/02 08:05:20;;;;;;;99.32;26.75;;;;;;;3.11;100.00;102088.34;5020187;28;20392;-78
2022/12/02 08:07:46;;;;;;;105.10;26.83;;;;;;;3.24;100.00;102091.59;4978592;28;20044;-77
2022/12/02 08:10:12;;;;;;;99.35;26.42;;;;;;;3.18;100.00;102089.97;5019810;28;20041;-77
2022/12/02 08:12:38;;;;;;;114.20;28.15;;;;;;;3.09;100.00;102091.09;5002451;28;20055;-77
2022/12/02 08:15:05;;;;;;;101.63;24.73;;;;;;;3.13;100.00;102086.47;5003667;28;20030;-77
2022/12/02 08:17:31;;;;;;;85.53;24.80;;;;;;;3.26;100.00;102087.03;5002768;28;20045;-77
2022/12/02 08:19:56;;;;;;;99.00;24.25;;;;;;;3.19;100.00;102090.84;4983365;28;20038;-78
2022/12/02 08:22:22;;;;;;;100.25;24.98;;;;;;;3.12;100.00;102082.03;5015559;28;20088;-77
2022/12/02 08:24:47;;;;;;;93.15;24.70;;;;;;;3.15;100.00;102090.06;5011341;28;20038;-77
2022/12/02 08:27:13;;;;;;;82.85;23.38;;;;;;;3.15;100.00;102084.66;4988084;28;20061;-77
2022/12/02 08:29:38;;;;;;;91.45;23.00;;;;;;;3.19;100.00;102085.44;5003072;28;20042;-77
2022/12/02 08:32:04;;;;;;;87.60;23.60;;;;;;;3.16;100.00;102077.41;4998188;28;20041;-77
2022/12/02 08:34:29;;;;;;;86.28;22.10;;;;;;;3.06;100.00;102082.19;4985755;28;20096;-77
2022/12/02 08:36:55;;;;;;;86.80;21.42;;;;;;;3.10;100.00;102086.59;4996637;28;20158;-77
2022/12/02 08:39:20;;;;;;;78.57;22.00;;;;;;;3.10;100.00;102084.78;5002945;28;20060;-78
2022/12/02 08:41:49;;;;;;;90.20;20.17;;;;;;;3.16;100.00;102088.22;4988838;28;20036;-77
2022/12/02 08:44:14;;;;;;;69.03;20.83;;;;;;;3.03;100.00;102088.56;4986517;28;20041;-77
2022/12/02 08:46:40;;;;;;;82.35;20.20;;;;;;;3.00;100.00;102085.97;5021402;28;20041;-76
2022/12/02 08:49:06;;;;;;;75.15;20.08;;;;;;;3.00;100.00;102083.25;5036685;28;20045;-76
2022/12/02 08:51:32;;;;;;;61.90;17.38;;;;;;;3.05;100.00;102088.50;5003518;28;20477;-76
2022/12/02 08:53:58;;;;;;;58.40;17.75;;;;;;;3.00;100.00;102083.25;4985842;28;20084;-77
2022/12/02 08:56:24;;;;;;;66.35;18.55;;;;;;;2.99;100.00;102088.72;4968932;28;20654;-76
2022/12/02 08:58:49;;;;;;;78.90;19.58;;;;;;;2.98;100.00;102081.50;5001473;28;20041;-77
2022/12/02 09:01:14;;;;;;;80.63;19.83;;;;;;;2.97;100.00;102079.72;5002168;28;20132;-77
2022/12/02 09:03:40;;;;;;;72.07;19.73;;;;;;;2.99;100.00;102080.59;5010788;28;20038;-77
2022/12/02 09:06:05;;;;;;;81.78;21.05;;;;;;;2.96;100.00;102086.97;5005006;28;20037;-77
2022/12/02 09:08:31;;;;;;;75.03;20.70;;;;;;;2.77;100.00;102083.84;5003957;28;20037;-78
2022/12/02 09:10:56;;;;;;;82.70;22.48;;;;;;;2.87;100.00;102076.38;5002753;28;20033;-77
2022/12/02 09:13:22;;;;;;;88.82;21.67;;;;;;;2.91;100.00;102081.66;5019814;28;20037;-77
2022/12/02 09:15:47;;;;;;;83.57;21.80;;;;;;;2.84;100.00;102076.50;4986693;28;20101;-77
2022/12/02 09:18:13;;;;;;;107.85;24.73;;;;;;;2.94;100.00;102086.13;5004708;28;20033;-77
2022/12/02 09:20:38;;;;;;;111.55;25.77;;;;;;;2.87;100.00;102087.19;5005465;28;20116;-77
2022/12/02 09:23:04;;;;;;;92.18;23.35;;;;;;;2.88;100.00;102084.47;4986770;28;20033;-77
2022/12/02 09:25:29;;;;;;;112.35;26.42;;;;;;;2.91;100.00;102086.22;4970121;28;20037;-77
2022/12/02 09:27:55;;;;;;;104.03;24.92;;;;;;;2.94;100.00;102086.13;4998222;28;20034;-77
2022/12/02 09:30:20;;;;;;;92.45;23.67;;;;;;;2.89;100.00;102082.66;4985240;28;20042;-77
2022/12/02 09:32:49;;;;;;;102.20;24.02;;;;;;;3.02;100.00;102077.81;4985416;28;20034;-77
2022/12/02 09:35:14;;;;;;;114.47;26.63;;;;;;;2.91;100.00;102076.25;5015721;28;20029;-76
2022/12/02 09:37:40;;;;;;;108.50;26.60;;;;;;;2.94;100.00;102076.19;4968558;28;20077;-77
2022/12/02 09:40:07;;;;;;;109.72;25.23;;;;;;;2.86;100.00;102063.81;4969373;28;20471;-76
2022/12/02 09:42:33;;;;;;;116.70;26.23;;;;;;;2.91;100.00;102060.03;5032987;28;20033;-78
2022/12/02 09:44:59;;;;;;;104.38;25.08;;;;;;;2.93;100.00;102057.28;5002145;28;20206;-76
2022/12/02 09:47:26;;;;;;;105.45;26.65;;;;;;;2.94;100.00;102057.25;5000970;28;20034;-77
2022/12/02 09:49:54;;;;;;;113.50;26.40;;;;;;;2.93;100.00;102057.28;5000878;28;20053;-77
2022/12/02 09:52:28;;;;;;;104.30;25.00;;;;;;;3.03;100.00;102055.22;4984172;28;20038;-77
2022/12/02 09:54:58;;;;;;;103.30;25.98;;;;;;;3.01;100.00;102048.97;4984430;28;20026;-77
2022/12/02 09:57:30;;;;;;;106.70;26.80;;;;;;;3.02;100.00;102061.56;5032641;28;20052;-77
2022/12/02 09:59:58;;;;;;;109.22;25.45;;;;;;;3.09;100.00;102057.75;5020994;28;20025;-77
2022/12/02 10:02:38;;;;;;;118.25;28.13;;;;;;;3.09;100.00;102058.63;5003645;28;20029;-77
2022/12/02 10:05:27;;;;;;;112.80;26.10;;;;;;;3.16;100.00;102064.75;5004077;28;20052;-77
2022/12/02 10:07:57;;;;;;;113.55;25.67;;;;;;;3.06;100.00;102058.72;4999734;28;20049;-76
2022/12/02 10:10:33;;;;;;;128.50;26.40;;;;;;;3.06;100.00;102063.25;5023336;28;20089;-77
2022/12/02 10:13:00;;;;;;;130.18;25.35;;;;;;;3.08;100.00;102051.47;5020092;28;20568;-77
2022/12/02 10:15:28;;;;;;;132.02;27.08;;;;;;;3.00;100.00;102067.03;5020783;28;20040;-77
2022/12/02 10:17:55;;;;;;;132.82;27.30;;;;;;;3.02;100.00;102056.16;5023263;28;20037;-78
2022/12/02 10:20:23;;;;;;;144.98;30.83;;;;;;;2.99;100.00;102051.72;5021475;28;20044;-78
2022/12/02 10:23:10;;;;;;;150.63;28.92;;;;;;;2.96;100.00;102053.63;4993074;28;20030;-77
2022/12/02 10:25:37;;;;;;;134.55;26.33;;;;;;;3.05;100.00;102053.34;5022694;28;20042;-78
2022/12/02 10:28:04;;;;;;;154.40;28.92;;;;;;;3.01;100.00;102049.84;5016068;28;20037;-78
2022/12/02 10:30:30;;;;;;;147.20;29.73;;;;;;;3.02;100.00;102056.16;5001708;28;20045;-78
2022/12/02 10:33:01;;;;;;;139.38;29.25;;;;;;;2.96;100.00;102056.31;5000777;28;20047;-78
2022/12/02 10:35:28;;;;;;;147.60;29.30;;;;;;;3.04;100.00;102054.28;4990992;28;20030;-77
2022/12/02 10:37:54;;;;;;;147.15;29.60;;;;;;;3.12;100.00;102049.56;4983433;28;20058;-78
2022/12/02 10:40:22;;;;;;;141.82;29.77;;;;;;;3.23;100.00;102038.41;5011906;28;20109;-77
2022/12/02 10:43:06;;;;;;;140.27;27.55;;;;;;;3.17;100.00;102028.66;5005126;28;20070;-77
2022/12/02 10:45:31;;;;;;;149.95;31.02;;;;;;;3.25;100.00;102037.44;4998261;28;20030;-76
2022/12/02 10:48:23;;;;;;;126.72;27.58;;;;;;;3.33;100.00;102033.59;4997573;28;20058;-76
2022/12/02 10:50:49;;;;;;;133.80;29.13;;;;;;;3.23;100.00;102027.56;4994244;28;20058;-76
2022/12/02 10:53:16;;;;;;;110.57;25.60;;;;;;;3.30;100.00;102040.88;5022647;28;20182;-77
2022/12/02 10:55:42;;;;;;;120.38;27.60;;;;;;;3.29;100.00;102036.41;4995841;28;20034;-76
2022/12/02 10:58:20;;;;;;;118.22;28.75;;;;;;;3.33;100.00;102039.94;4997134;28;20482;-76
2022/12/02 11:00:49;;;;;;;133.77;28.83;;;;;;;3.40;100.00;102030.66;4997078;28;20037;-76
2022/12/02 11:03:14;;;;;;;130.60;29.00;;;;;;;3.34;100.00;102030.84;4982521;28;20403;-76
2022/12/02 11:05:40;;;;;;;116.53;25.52;;;;;;;3.33;100.00;102039.94;4983080;28;20042;-77
2022/12/02 11:08:15;;;;;;;96.82;27.40;;;;;;;3.54;100.00;102032.06;4996150;28;20039;-76